sensor_id;sensor_type;location;lat;lon;timestamp;P1;durP1;ratioP1;P2;durP2;ratioP2
13319;SDS011;59599;47.608;12.190;2023-10-13T04:01:47;5.03;;;4.27;;
13319;SDS011;59599;47.608;12.190;2023-10-13T04:04:13;8.23;;;4.20;;
13319;SDS011;59599;47.608;12.190;2023-10-13T04:06:54;8.40;;;4.83;;
13319;SDS011;59599;47.608;12.190;2023-10-13T04:09:39;6.97;;;4.73;;
13319;SDS011;59599;47.608;12.190;2023-10-13T04:12:05;12.77;;;4.30;;
13319;SDS011;59599;47.608;12.190;2023-10-13T04:14:41;8.80;;;4.30;;
13319;SDS011;59599;47.608;12.190;2023-10-13T04:17:23;7.50;;;4.10;;
13319;SDS011;59599;47.608;12.190;2023-10-13T04:19:53;8.67;;;3.87;;
13319;SDS011;59599;47.608;12.190;2023-10-13T04:22:33;9.60;;;4.80;;
13319;SDS011;59599;47.608;12.190;2023-10-13T04:25:12;7.10;;;4.37;;
13319;SDS011;59599;47.608;12.190;2023-10-13T04:28:07;10.87;;;4.63;;
13319;SDS011;59599;47.608;12.190;2023-10-13T04:33:20;12.00;;;4.47;;
13319;SDS011;59599;47.608;12.190;2023-10-13T04:36:12;9.43;;;4.73;;
13319;SDS011;59599;47.608;12.190;2023-10-13T04:38:40;9.70;;;4.03;;
13319;SDS011;59599;47.608;12.190;2023-10-13T04:41:24;9.37;;;4.00;;
13319;SDS011;59599;47.608;12.190;2023-10-13T04:43:57;6.93;;;4.40;;
13319;SDS011;59599;47.608;12.190;2023-10-13T04:46:29;7.70;;;4.37;;
13319;SDS011;59599;47.608;12.190;2023-10-13T04:49:19;8.30;;;4.20;;
13319;SDS011;59599;47.608;12.190;2023-10-13T04:52:14;7.80;;;4.20;;
13319;SDS011;59599;47.608;12.190;2023-10-13T04:55:00;7.10;;;4.40;;
13319;SDS011;59599;47.608;12.190;2023-10-13T04:57:42;13.07;;;4.43;;
13319;SDS011;59599;47.608;12.190;2023-10-13T05:00:11;7.67;;;3.97;;
13319;SDS011;59599;47.608;12.190;2023-10-13T05:05:04;7.40;;;4.13;;
13319;SDS011;59599;47.608;12.190;2023-10-13T05:07:43;7.30;;;4.00;;
13319;SDS011;59599;47.608;12.190;2023-10-13T05:10:28;5.63;;;3.53;;
13319;SDS011;59599;47.608;12.190;2023-10-13T05:13:13;6.40;;;4.10;;
13319;SDS011;59599;47.608;12.190;2023-10-13T05:15:57;7.50;;;3.73;;
13319;SDS011;59599;47.608;12.190;2023-10-13T05:18:42;5.83;;;3.60;;
13319;SDS011;59599;47.608;12.190;2023-10-13T05:21:26;6.83;;;3.50;;
13319;SDS011;59599;47.608;12.190;2023-10-13T05:24:11;11.10;;;3.97;;
13319;SDS011;59599;47.608;12.190;2023-10-13T05:26:55;6.97;;;3.63;;
13319;SDS011;59599;47.608;12.190;2023-10-13T05:29:40;6.13;;;4.07;;
13319;SDS011;59599;47.608;12.190;2023-10-13T05:32:27;11.63;;;4.10;;
13319;SDS011;59599;47.608;12.190;2023-10-13T05:35:13;9.57;;;4.37;;
13319;SDS011;59599;47.608;12.190;2023-10-13T05:37:58;8.57;;;4.20;;
13319;SDS011;59599;47.608;12.190;2023-10-13T05:43:42;6.20;;;3.73;;
13319;SDS011;59599;47.608;12.190;2023-10-13T05:46:27;8.23;;;4.13;;
13319;SDS011;59599;47.608;12.190;2023-10-13T05:48:53;6.27;;;3.97;;
13319;SDS011;59599;47.608;12.190;2023-10-13T05:51:25;5.10;;;4.00;;
13319;SDS011;59599;47.608;12.190;2023-10-13T05:54:04;9.43;;;4.70;;
13319;SDS011;59599;47.608;12.190;2023-10-13T05:56:45;10.27;;;4.93;;
13319;SDS011;59599;47.608;12.190;2023-10-13T05:59:35;15.00;;;4.23;;
13319;SDS011;59599;47.608;12.190;2023-10-13T06:02:20;9.70;;;4.30;;
13319;SDS011;59599;47.608;12.190;2023-10-13T06:05:09;9.13;;;4.57;;
13319;SDS011;59599;47.608;12.190;2023-10-13T06:08:08;10.27;;;4.27;;
13319;SDS011;59599;47.608;12.190;2023-10-13T06:11:00;7.77;;;4.47;;
13319;SDS011;59599;47.608;12.190;2023-10-13T06:13:48;9.47;;;4.47;;
13319;SDS011;59599;47.608;12.190;2023-10-13T06:16:32;7.97;;;4.33;;
13319;SDS011;59599;47.608;12.190;2023-10-13T06:19:16;9.40;;;5.03;;
13319;SDS011;59599;47.608;12.190;2023-10-13T06:22:01;11.40;;;4.43;;
13319;SDS011;59599;47.608;12.190;2023-10-13T06:24:45;6.70;;;4.27;;
13319;SDS011;59599;47.608;12.190;2023-10-13T06:27:29;6.50;;;3.93;;
13319;SDS011;59599;47.608;12.190;2023-10-13T06:30:13;7.07;;;4.40;;
13319;SDS011;59599;47.608;12.190;2023-10-13T06:32:39;7.97;;;4.40;;
13319;SDS011;59599;47.608;12.190;2023-10-13T06:35:05;15.30;;;8.47;;
13319;SDS011;59599;47.608;12.190;2023-10-13T06:37:34;7.97;;;4.27;;
13319;SDS011;59599;47.608;12.190;2023-10-13T06:40:10;7.27;;;4.10;;
13319;SDS011;59599;47.608;12.190;2023-10-13T06:42:54;11.97;;;4.83;;
13319;SDS011;59599;47.608;12.190;2023-10-13T06:45:36;7.47;;;4.03;;
13319;SDS011;59599;47.608;12.190;2023-10-13T06:48:02;11.67;;;4.37;;
13319;SDS011;59599;47.608;12.190;2023-10-13T06:50:29;7.97;;;4.43;;
13319;SDS011;59599;47.608;12.190;2023-10-13T06:53:04;9.17;;;3.97;;
13319;SDS011;59599;47.608;12.190;2023-10-13T06:55:29;9.17;;;4.30;;
13319;SDS011;59599;47.608;12.190;2023-10-13T06:58:00;11.97;;;4.60;;
13319;SDS011;59599;47.608;12.190;2023-10-13T07:00:26;12.33;;;6.73;;
13319;SDS011;59599;47.608;12.190;2023-10-13T07:02:55;8.20;;;4.50;;
13319;SDS011;59599;47.608;12.190;2023-10-13T07:05:37;8.03;;;4.63;;
13319;SDS011;59599;47.608;12.190;2023-10-13T07:08:07;11.40;;;4.63;;
13319;SDS011;59599;47.608;12.190;2023-10-13T07:10:33;9.17;;;4.20;;
13319;SDS011;59599;47.608;12.190;2023-10-13T07:13:17;8.80;;;4.23;;
13319;SDS011;59599;47.608;12.190;2023-10-13T07:15:44;11.00;;;4.30;;
13319;SDS011;59599;47.608;12.190;2023-10-13T07:18:13;7.57;;;4.43;;
13319;SDS011;59599;47.608;12.190;2023-10-13T07:20:42;11.03;;;4.40;;
13319;SDS011;59599;47.608;12.190;2023-10-13T07:23:13;14.00;;;4.43;;
13319;SDS011;59599;47.608;12.190;2023-10-13T07:25:43;8.83;;;4.70;;
13319;SDS011;59599;47.608;12.190;2023-10-13T07:28:19;12.60;;;4.53;;
13319;SDS011;59599;47.608;12.190;2023-10-13T07:30:46;13.57;;;4.67;;
13319;SDS011;59599;47.608;12.190;2023-10-13T07:33:34;13.10;;;4.63;;
13319;SDS011;59599;47.608;12.190;2023-10-13T07:36:06;9.73;;;4.27;;
13319;SDS011;59599;47.608;12.190;2023-10-13T07:38:49;9.07;;;4.17;;
13319;SDS011;59599;47.608;12.190;2023-10-13T07:41:45;6.23;;;4.13;;
13319;SDS011;59599;47.608;12.190;2023-10-13T07:44:18;15.63;;;5.00;;
13319;SDS011;59599;47.608;12.190;2023-10-13T07:46:46;8.50;;;4.27;;
13319;SDS011;59599;47.608;12.190;2023-10-13T07:49:23;6.37;;;4.50;;
13319;SDS011;59599;47.608;12.190;2023-10-13T07:51:55;9.23;;;4.53;;
13319;SDS011;59599;47.608;12.190;2023-10-13T07:54:25;7.37;;;4.33;;
13319;SDS011;59599;47.608;12.190;2023-10-13T07:56:51;9.63;;;4.67;;
13319;SDS011;59599;47.608;12.190;2023-10-13T07:59:20;8.00;;;4.40;;
13319;SDS011;59599;47.608;12.190;2023-10-13T08:01:47;8.47;;;4.40;;
13319;SDS011;59599;47.608;12.190;2023-10-13T08:04:31;8.32;;;4.30;;
13319;SDS011;59599;47.608;12.190;2023-10-13T08:07:00;5.63;;;3.93;;
13319;SDS011;59599;47.608;12.190;2023-10-13T08:09:38;6.38;;;4.07;;
13319;SDS011;59599;47.608;12.190;2023-10-13T08:12:08;7.35;;;4.47;;
13319;SDS011;59599;47.608;12.190;2023-10-13T08:14:37;5.50;;;4.07;;
13319;SDS011;59599;47.608;12.190;2023-10-13T08:17:05;7.43;;;4.13;;
13319;SDS011;59599;47.608;12.190;2023-10-13T08:19:35;7.88;;;4.28;;
13319;SDS011;59599;47.608;12.190;2023-10-13T08:22:10;6.10;;;3.88;;
13319;SDS011;59599;47.608;12.190;2023-10-13T08:24:49;11.23;;;4.20;;
13319;SDS011;59599;47.608;12.190;2023-10-13T08:27:18;9.18;;;4.15;;
13319;SDS011;59599;47.608;12.190;2023-10-13T08:30:13;6.75;;;3.90;;
13319;SDS011;59599;47.608;12.190;2023-10-13T08:32:51;8.65;;;4.10;;
13319;SDS011;59599;47.608;12.190;2023-10-13T08:35:20;6.85;;;4.07;;
13319;SDS011;59599;47.608;12.190;2023-10-13T08:37:59;13.05;;;3.75;;
13319;SDS011;59599;47.608;12.190;2023-10-13T08:40:29;9.95;;;5.15;;
13319;SDS011;59599;47.608;12.190;2023-10-13T08:43:13;8.48;;;4.10;;
13319;SDS011;59599;47.608;12.190;2023-10-13T08:45:40;7.38;;;3.90;;
13319;SDS011;59599;47.608;12.190;2023-10-13T08:48:10;9.02;;;4.10;;
13319;SDS011;59599;47.608;12.190;2023-10-13T08:50:42;14.20;;;4.10;;
13319;SDS011;59599;47.608;12.190;2023-10-13T08:55:56;6.47;;;3.50;;
13319;SDS011;59599;47.608;12.190;2023-10-13T08:58:38;13.63;;;3.72;;
13319;SDS011;59599;47.608;12.190;2023-10-13T09:04:08;8.82;;;3.92;;
13319;SDS011;59599;47.608;12.190;2023-10-13T09:06:44;8.10;;;4.32;;
13319;SDS011;59599;47.608;12.190;2023-10-13T09:09:27;11.30;;;4.15;;
13319;SDS011;59599;47.608;12.190;2023-10-13T09:12:13;11.23;;;5.32;;
13319;SDS011;59599;47.608;12.190;2023-10-13T09:14:54;7.68;;;3.80;;
13319;SDS011;59599;47.608;12.190;2023-10-13T09:17:30;8.50;;;3.72;;
13319;SDS011;59599;47.608;12.190;2023-10-13T09:20:00;6.35;;;3.22;;
13319;SDS011;59599;47.608;12.190;2023-10-13T09:22:44;11.43;;;3.95;;
13319;SDS011;59599;47.608;12.190;2023-10-13T09:25:21;4.45;;;2.92;;
13319;SDS011;59599;47.608;12.190;2023-10-13T09:27:48;7.05;;;3.13;;
13319;SDS011;59599;47.608;12.190;2023-10-13T09:30:18;12.00;;;3.78;;
13319;SDS011;59599;47.608;12.190;2023-10-13T09:33:09;8.63;;;3.10;;
13319;SDS011;59599;47.608;12.190;2023-10-13T09:35:34;6.43;;;3.13;;
13319;SDS011;59599;47.608;12.190;2023-10-13T09:38:02;6.25;;;3.90;;
13319;SDS011;59599;47.608;12.190;2023-10-13T09:40:28;4.30;;;2.88;;
13319;SDS011;59599;47.608;12.190;2023-10-13T09:42:57;7.68;;;3.40;;
13319;SDS011;59599;47.608;12.190;2023-10-13T09:45:30;9.77;;;3.50;;
13319;SDS011;59599;47.608;12.190;2023-10-13T09:48:05;6.47;;;3.17;;
13319;SDS011;59599;47.608;12.190;2023-10-13T09:50:42;8.95;;;3.42;;
13319;SDS011;59599;47.608;12.190;2023-10-13T09:53:11;7.35;;;3.30;;
13319;SDS011;59599;47.608;12.190;2023-10-13T09:55:44;7.65;;;3.58;;
13319;SDS011;59599;47.608;12.190;2023-10-13T09:58:13;4.22;;;2.70;;
13319;SDS011;59599;47.608;12.190;2023-10-13T10:00:52;7.10;;;3.30;;
13319;SDS011;59599;47.608;12.190;2023-10-13T10:03:32;5.13;;;3.25;;
13319;SDS011;59599;47.608;12.190;2023-10-13T10:06:02;5.90;;;3.03;;
13319;SDS011;59599;47.608;12.190;2023-10-13T10:08:34;7.93;;;3.33;;
13319;SDS011;59599;47.608;12.190;2023-10-13T10:16:26;6.43;;;3.38;;
13319;SDS011;59599;47.608;12.190;2023-10-13T10:19:14;8.88;;;3.67;;
13319;SDS011;59599;47.608;12.190;2023-10-13T10:21:40;5.13;;;3.15;;
13319;SDS011;59599;47.608;12.190;2023-10-13T10:24:13;7.47;;;3.42;;
13319;SDS011;59599;47.608;12.190;2023-10-13T10:26:53;7.38;;;3.20;;
13319;SDS011;59599;47.608;12.190;2023-10-13T10:29:18;5.13;;;2.97;;
13319;SDS011;59599;47.608;12.190;2023-10-13T10:31:47;4.20;;;3.22;;
13319;SDS011;59599;47.608;12.190;2023-10-13T10:34:20;8.02;;;2.72;;
13319;SDS011;59599;47.608;12.190;2023-10-13T10:36:58;7.45;;;2.90;;
13319;SDS011;59599;47.608;12.190;2023-10-13T10:39:34;5.93;;;3.05;;
13319;SDS011;59599;47.608;12.190;2023-10-13T10:42:42;6.75;;;2.97;;
13319;SDS011;59599;47.608;12.190;2023-10-13T10:45:09;4.05;;;2.95;;
13319;SDS011;59599;47.608;12.190;2023-10-13T10:47:36;4.68;;;2.50;;
13319;SDS011;59599;47.608;12.190;2023-10-13T10:50:04;6.35;;;3.20;;
13319;SDS011;59599;47.608;12.190;2023-10-13T10:52:44;7.63;;;3.53;;
13319;SDS011;59599;47.608;12.190;2023-10-13T10:55:11;4.97;;;2.80;;
13319;SDS011;59599;47.608;12.190;2023-10-13T10:57:42;5.90;;;3.05;;
13319;SDS011;59599;47.608;12.190;2023-10-13T11:00:20;9.07;;;3.30;;
13319;SDS011;59599;47.608;12.190;2023-10-13T11:02:57;6.22;;;3.03;;
13319;SDS011;59599;47.608;12.190;2023-10-13T11:05:30;9.57;;;2.88;;
13319;SDS011;59599;47.608;12.190;2023-10-13T11:08:00;7.82;;;2.72;;
13319;SDS011;59599;47.608;12.190;2023-10-13T11:10:27;6.78;;;2.95;;
13319;SDS011;59599;47.608;12.190;2023-10-13T11:12:58;9.52;;;3.15;;
13319;SDS011;59599;47.608;12.190;2023-10-13T11:15:43;6.45;;;3.08;;
13319;SDS011;59599;47.608;12.190;2023-10-13T11:18:10;6.07;;;3.25;;
13319;SDS011;59599;47.608;12.190;2023-10-13T11:21:14;7.85;;;2.80;;
13319;SDS011;59599;47.608;12.190;2023-10-13T11:23:40;4.35;;;2.70;;
13319;SDS011;59599;47.608;12.190;2023-10-13T11:26:13;3.30;;;2.60;;
13319;SDS011;59599;47.608;12.190;2023-10-13T11:28:49;4.95;;;2.58;;
13319;SDS011;59599;47.608;12.190;2023-10-13T11:31:15;6.40;;;3.08;;
13319;SDS011;59599;47.608;12.190;2023-10-13T11:33:44;9.35;;;3.30;;
13319;SDS011;59599;47.608;12.190;2023-10-13T11:36:15;4.22;;;2.67;;
13319;SDS011;59599;47.608;12.190;2023-10-13T11:38:54;5.07;;;3.00;;
13319;SDS011;59599;47.608;12.190;2023-10-13T11:41:23;9.88;;;2.90;;
13319;SDS011;59599;47.608;12.190;2023-10-13T11:43:49;5.65;;;2.80;;
13319;SDS011;59599;47.608;12.190;2023-10-13T11:46:16;5.45;;;2.80;;
13319;SDS011;59599;47.608;12.190;2023-10-13T11:51:44;9.63;;;4.60;;
13319;SDS011;59599;47.608;12.190;2023-10-13T11:54:19;4.82;;;3.17;;
13319;SDS011;59599;47.608;12.190;2023-10-13T11:56:48;8.13;;;3.17;;
13319;SDS011;59599;47.608;12.190;2023-10-13T11:59:14;7.63;;;2.83;;
13319;SDS011;59599;47.608;12.190;2023-10-13T12:01:49;4.93;;;3.20;;
13319;SDS011;59599;47.608;12.190;2023-10-13T12:04:34;4.25;;;3.15;;
13319;SDS011;59599;47.608;12.190;2023-10-13T12:07:27;11.55;;;3.42;;
13319;SDS011;59599;47.608;12.190;2023-10-13T12:10:10;7.30;;;3.20;;
13319;SDS011;59599;47.608;12.190;2023-10-13T12:12:55;6.07;;;3.13;;
13319;SDS011;59599;47.608;12.190;2023-10-13T12:15:22;6.50;;;2.58;;
13319;SDS011;59599;47.608;12.190;2023-10-13T12:17:58;7.53;;;3.00;;
13319;SDS011;59599;47.608;12.190;2023-10-13T12:20:24;4.65;;;3.10;;
13319;SDS011;59599;47.608;12.190;2023-10-13T12:22:58;6.13;;;3.17;;
13319;SDS011;59599;47.608;12.190;2023-10-13T12:25:34;4.95;;;2.85;;
13319;SDS011;59599;47.608;12.190;2023-10-13T12:28:19;10.32;;;4.13;;
13319;SDS011;59599;47.608;12.190;2023-10-13T12:30:47;4.93;;;2.97;;
13319;SDS011;59599;47.608;12.190;2023-10-13T12:33:14;4.18;;;3.03;;
13319;SDS011;59599;47.608;12.190;2023-10-13T12:35:48;7.20;;;2.45;;
13319;SDS011;59599;47.608;12.190;2023-10-13T12:38:34;6.50;;;2.72;;
13319;SDS011;59599;47.608;12.190;2023-10-13T12:41:12;4.63;;;2.72;;
13319;SDS011;59599;47.608;12.190;2023-10-13T12:43:57;7.50;;;2.83;;
13319;SDS011;59599;47.608;12.190;2023-10-13T12:46:41;9.02;;;3.08;;
13319;SDS011;59599;47.608;12.190;2023-10-13T12:49:26;8.13;;;2.95;;
13319;SDS011;59599;47.608;12.190;2023-10-13T12:52:07;8.20;;;3.05;;
13319;SDS011;59599;47.608;12.190;2023-10-13T12:54:50;6.07;;;3.00;;
13319;SDS011;59599;47.608;12.190;2023-10-13T12:57:22;3.83;;;2.78;;
13319;SDS011;59599;47.608;12.190;2023-10-13T12:59:48;7.60;;;3.13;;
13319;SDS011;59599;47.608;12.190;2023-10-13T13:02:14;7.55;;;2.95;;
13319;SDS011;59599;47.608;12.190;2023-10-13T13:04:41;3.78;;;2.83;;
13319;SDS011;59599;47.608;12.190;2023-10-13T13:07:09;4.90;;;2.70;;
13319;SDS011;59599;47.608;12.190;2023-10-13T13:09:38;7.95;;;3.08;;
13319;SDS011;59599;47.608;12.190;2023-10-13T13:12:04;6.25;;;3.13;;
13319;SDS011;59599;47.608;12.190;2023-10-13T13:14:31;9.52;;;2.80;;
13319;SDS011;59599;47.608;12.190;2023-10-13T13:16:59;10.68;;;3.25;;
13319;SDS011;59599;47.608;12.190;2023-10-13T13:19:34;5.70;;;2.85;;
13319;SDS011;59599;47.608;12.190;2023-10-13T13:22:04;7.32;;;3.20;;
13319;SDS011;59599;47.608;12.190;2023-10-13T13:24:43;5.15;;;2.80;;
13319;SDS011;59599;47.608;12.190;2023-10-13T13:27:13;5.60;;;3.15;;
13319;SDS011;59599;47.608;12.190;2023-10-13T13:29:48;8.43;;;2.90;;
13319;SDS011;59599;47.608;12.190;2023-10-13T13:32:14;8.25;;;3.40;;
13319;SDS011;59599;47.608;12.190;2023-10-13T13:34:49;6.28;;;2.97;;
13319;SDS011;59599;47.608;12.190;2023-10-13T13:37:38;5.57;;;2.92;;
13319;SDS011;59599;47.608;12.190;2023-10-13T13:40:04;6.53;;;2.85;;
13319;SDS011;59599;47.608;12.190;2023-10-13T13:42:43;13.20;;;3.88;;
13319;SDS011;59599;47.608;12.190;2023-10-13T13:45:16;9.70;;;3.33;;
13319;SDS011;59599;47.608;12.190;2023-10-13T13:47:46;9.40;;;3.25;;
13319;SDS011;59599;47.608;12.190;2023-10-13T13:50:18;6.45;;;2.95;;
13319;SDS011;59599;47.608;12.190;2023-10-13T13:52:48;9.00;;;3.28;;
13319;SDS011;59599;47.608;12.190;2023-10-13T13:55:15;9.45;;;2.97;;
13319;SDS011;59599;47.608;12.190;2023-10-13T13:57:42;7.25;;;2.80;;
13319;SDS011;59599;47.608;12.190;2023-10-13T14:00:10;6.47;;;3.13;;
13319;SDS011;59599;47.608;12.190;2023-10-13T14:02:42;7.70;;;3.00;;
13319;SDS011;59599;47.608;12.190;2023-10-13T14:05:14;9.93;;;3.72;;
13319;SDS011;59599;47.608;12.190;2023-10-13T14:07:43;6.30;;;3.10;;
13319;SDS011;59599;47.608;12.190;2023-10-13T14:10:14;7.45;;;3.20;;
13319;SDS011;59599;47.608;12.190;2023-10-13T14:12:57;9.20;;;3.40;;
13319;SDS011;59599;47.608;12.190;2023-10-13T14:18:52;15.00;;;3.42;;
13319;SDS011;59599;47.608;12.190;2023-10-13T14:21:21;9.95;;;3.45;;
13319;SDS011;59599;47.608;12.190;2023-10-13T14:23:50;19.48;;;4.07;;
13319;SDS011;59599;47.608;12.190;2023-10-13T14:26:20;3.30;;;2.60;;
13319;SDS011;59599;47.608;12.190;2023-10-13T14:28:54;8.23;;;2.75;;
13319;SDS011;59599;47.608;12.190;2023-10-13T14:31:44;15.30;;;3.42;;
13319;SDS011;59599;47.608;12.190;2023-10-13T14:34:35;6.45;;;3.15;;
13319;SDS011;59599;47.608;12.190;2023-10-13T14:37:31;9.25;;;3.38;;
13319;SDS011;59599;47.608;12.190;2023-10-13T14:39:57;7.38;;;3.03;;
13319;SDS011;59599;47.608;12.190;2023-10-13T14:42:24;8.90;;;2.90;;
13319;SDS011;59599;47.608;12.190;2023-10-13T14:44:51;6.47;;;3.17;;
13319;SDS011;59599;47.608;12.190;2023-10-13T14:47:23;11.80;;;3.70;;
13319;SDS011;59599;47.608;12.190;2023-10-13T14:49:56;7.63;;;3.40;;
13319;SDS011;59599;47.608;12.190;2023-10-13T14:52:26;10.95;;;3.20;;
13319;SDS011;59599;47.608;12.190;2023-10-13T14:54:56;8.65;;;3.47;;
13319;SDS011;59599;47.608;12.190;2023-10-13T14:57:22;9.98;;;3.63;;
13319;SDS011;59599;47.608;12.190;2023-10-13T14:59:54;8.70;;;4.13;;
13319;SDS011;59599;47.608;12.190;2023-10-13T15:02:20;7.78;;;4.55;;
13319;SDS011;59599;47.608;12.190;2023-10-13T15:04:47;9.18;;;4.68;;
13319;SDS011;59599;47.608;12.190;2023-10-13T15:07:16;17.98;;;13.38;;
13319;SDS011;59599;47.608;12.190;2023-10-13T15:09:47;22.17;;;19.75;;
13319;SDS011;59599;47.608;12.190;2023-10-13T15:12:13;19.27;;;15.98;;
13319;SDS011;59599;47.608;12.190;2023-10-13T15:14:39;15.35;;;9.80;;
13319;SDS011;59599;47.608;12.190;2023-10-13T15:17:08;11.73;;;6.40;;
13319;SDS011;59599;47.608;12.190;2023-10-13T15:19:34;11.48;;;6.57;;
13319;SDS011;59599;47.608;12.190;2023-10-13T15:22:04;7.28;;;5.55;;
13319;SDS011;59599;47.608;12.190;2023-10-13T15:24:37;13.60;;;6.03;;
13319;SDS011;59599;47.608;12.190;2023-10-13T15:27:10;10.48;;;6.75;;
13319;SDS011;59599;47.608;12.190;2023-10-13T15:29:36;8.25;;;6.13;;
13319;SDS011;59599;47.608;12.190;2023-10-13T15:32:02;13.55;;;5.18;;
13319;SDS011;59599;47.608;12.190;2023-10-13T15:34:28;14.10;;;7.45;;
13319;SDS011;59599;47.608;12.190;2023-10-13T15:36:54;11.20;;;5.75;;
13319;SDS011;59599;47.608;12.190;2023-10-13T15:39:21;11.00;;;5.70;;
13319;SDS011;59599;47.608;12.190;2023-10-13T15:41:53;9.23;;;5.07;;
13319;SDS011;59599;47.608;12.190;2023-10-13T15:44:23;10.10;;;4.93;;
13319;SDS011;59599;47.608;12.190;2023-10-13T15:46:52;12.25;;;4.57;;
13319;SDS011;59599;47.608;12.190;2023-10-13T15:49:21;8.10;;;4.50;;
13319;SDS011;59599;47.608;12.190;2023-10-13T15:51:47;9.93;;;4.85;;
13319;SDS011;59599;47.608;12.190;2023-10-13T15:54:14;5.85;;;4.28;;
13319;SDS011;59599;47.608;12.190;2023-10-13T15:56:48;6.88;;;3.85;;
13319;SDS011;59599;47.608;12.190;2023-10-13T15:59:14;8.77;;;4.07;;
13319;SDS011;59599;47.608;12.190;2023-10-13T16:01:40;8.60;;;3.80;;
13319;SDS011;59599;47.608;12.190;2023-10-13T16:04:07;10.23;;;3.80;;
13319;SDS011;59599;47.608;12.190;2023-10-13T16:06:39;12.23;;;3.17;;
13319;SDS011;59599;47.608;12.190;2023-10-13T16:09:05;6.47;;;3.50;;
13319;SDS011;59599;47.608;12.190;2023-10-13T16:11:39;5.78;;;2.97;;
13319;SDS011;59599;47.608;12.190;2023-10-13T16:14:07;6.80;;;3.40;;
13319;SDS011;59599;47.608;12.190;2023-10-13T16:16:35;8.25;;;3.20;;
13319;SDS011;59599;47.608;12.190;2023-10-13T16:19:01;8.45;;;3.03;;
13319;SDS011;59599;47.608;12.190;2023-10-13T16:21:32;5.28;;;3.17;;
13319;SDS011;59599;47.608;12.190;2023-10-13T16:23:58;7.47;;;3.17;;
13319;SDS011;59599;47.608;12.190;2023-10-13T16:26:25;10.02;;;3.38;;
13319;SDS011;59599;47.608;12.190;2023-10-13T16:28:51;5.45;;;3.40;;
13319;SDS011;59599;47.608;12.190;2023-10-13T16:31:19;5.22;;;3.33;;
13319;SDS011;59599;47.608;12.190;2023-10-13T16:33:48;6.88;;;3.90;;
13319;SDS011;59599;47.608;12.190;2023-10-13T16:36:14;7.13;;;3.20;;
13319;SDS011;59599;47.608;12.190;2023-10-13T16:38:40;5.75;;;2.92;;
13319;SDS011;59599;47.608;12.190;2023-10-13T16:41:10;6.78;;;2.80;;
13319;SDS011;59599;47.608;12.190;2023-10-13T16:43:37;7.40;;;3.10;;
13319;SDS011;59599;47.608;12.190;2023-10-13T16:46:03;6.75;;;3.17;;
13319;SDS011;59599;47.608;12.190;2023-10-13T16:48:40;6.60;;;3.30;;
13319;SDS011;59599;47.608;12.190;2023-10-13T16:51:07;10.55;;;3.63;;
13319;SDS011;59599;47.608;12.190;2023-10-13T16:53:39;8.10;;;3.83;;
13319;SDS011;59599;47.608;12.190;2023-10-13T16:56:07;6.80;;;3.47;;
13319;SDS011;59599;47.608;12.190;2023-10-13T16:58:33;6.75;;;3.50;;
13319;SDS011;59599;47.608;12.190;2023-10-13T17:00:59;6.88;;;3.22;;
13319;SDS011;59599;47.608;12.190;2023-10-13T17:03:29;8.98;;;4.03;;
13319;SDS011;59599;47.608;12.190;2023-10-13T17:05:56;10.55;;;3.45;;
13319;SDS011;59599;47.608;12.190;2023-10-13T17:08:22;8.10;;;3.42;;
13319;SDS011;59599;47.608;12.190;2023-10-13T17:10:49;5.70;;;3.38;;
13319;SDS011;59599;47.608;12.190;2023-10-13T17:13:16;11.10;;;4.07;;
13319;SDS011;59599;47.608;12.190;2023-10-13T17:15:50;10.45;;;4.07;;
13319;SDS011;59599;47.608;12.190;2023-10-13T17:18:16;8.52;;;3.38;;
13319;SDS011;59599;47.608;12.190;2023-10-13T17:20:43;13.52;;;4.25;;
13319;SDS011;59599;47.608;12.190;2023-10-13T17:23:10;6.40;;;3.75;;
13319;SDS011;59599;47.608;12.190;2023-10-13T17:25:38;10.32;;;3.65;;
13319;SDS011;59599;47.608;12.190;2023-10-13T17:28:05;7.85;;;3.47;;
13319;SDS011;59599;47.608;12.190;2023-10-13T17:30:40;14.98;;;4.05;;
13319;SDS011;59599;47.608;12.190;2023-10-13T17:33:07;8.85;;;3.90;;
13319;SDS011;59599;47.608;12.190;2023-10-13T17:35:36;9.90;;;4.13;;
13319;SDS011;59599;47.608;12.190;2023-10-13T17:38:05;11.32;;;4.07;;
13319;SDS011;59599;47.608;12.190;2023-10-13T17:40:33;12.98;;;3.22;;
13319;SDS011;59599;47.608;12.190;2023-10-13T17:43:00;10.70;;;3.55;;
13319;SDS011;59599;47.608;12.190;2023-10-13T17:45:26;12.75;;;3.88;;
13319;SDS011;59599;47.608;12.190;2023-10-13T17:47:53;11.45;;;3.78;;
13319;SDS011;59599;47.608;12.190;2023-10-13T17:50:20;9.10;;;4.07;;
13319;SDS011;59599;47.608;12.190;2023-10-13T17:52:46;14.20;;;5.13;;
13319;SDS011;59599;47.608;12.190;2023-10-13T17:55:13;15.23;;;5.95;;
13319;SDS011;59599;47.608;12.190;2023-10-13T17:57:41;13.10;;;6.57;;
13319;SDS011;59599;47.608;12.190;2023-10-13T18:00:07;13.48;;;5.43;;
13319;SDS011;59599;47.608;12.190;2023-10-13T18:02:40;9.15;;;5.00;;
13319;SDS011;59599;47.608;12.190;2023-10-13T18:05:08;10.52;;;4.50;;
13319;SDS011;59599;47.608;12.190;2023-10-13T18:07:38;9.57;;;5.18;;
13319;SDS011;59599;47.608;12.190;2023-10-13T18:10:06;8.15;;;5.20;;
13319;SDS011;59599;47.608;12.190;2023-10-13T18:12:35;11.18;;;5.22;;
13319;SDS011;59599;47.608;12.190;2023-10-13T18:15:05;8.48;;;4.97;;
13319;SDS011;59599;47.608;12.190;2023-10-13T18:17:34;10.60;;;4.80;;
13319;SDS011;59599;47.608;12.190;2023-10-13T18:20:02;8.18;;;5.25;;
13319;SDS011;59599;47.608;12.190;2023-10-13T18:22:29;8.38;;;4.63;;
13319;SDS011;59599;47.608;12.190;2023-10-13T18:24:55;9.25;;;4.47;;
13319;SDS011;59599;47.608;12.190;2023-10-13T18:27:22;8.95;;;4.38;;
13319;SDS011;59599;47.608;12.190;2023-10-13T18:29:49;8.23;;;5.22;;
13319;SDS011;59599;47.608;12.190;2023-10-13T18:32:15;9.45;;;4.95;;
13319;SDS011;59599;47.608;12.190;2023-10-13T18:34:45;8.43;;;4.63;;
13319;SDS011;59599;47.608;12.190;2023-10-13T18:37:13;11.25;;;4.63;;
13319;SDS011;59599;47.608;12.190;2023-10-13T18:39:39;8.55;;;4.38;;
13319;SDS011;59599;47.608;12.190;2023-10-13T18:42:05;8.23;;;5.05;;
13319;SDS011;59599;47.608;12.190;2023-10-13T18:44:33;8.48;;;4.78;;
13319;SDS011;59599;47.608;12.190;2023-10-13T18:46:59;8.98;;;4.95;;
13319;SDS011;59599;47.608;12.190;2023-10-13T18:49:26;7.65;;;4.53;;
13319;SDS011;59599;47.608;12.190;2023-10-13T18:51:52;9.52;;;5.78;;
13319;SDS011;59599;47.608;12.190;2023-10-13T18:54:20;10.55;;;5.60;;
13319;SDS011;59599;47.608;12.190;2023-10-13T18:56:47;10.13;;;5.45;;
13319;SDS011;59599;47.608;12.190;2023-10-13T18:59:16;8.95;;;6.28;;
13319;SDS011;59599;47.608;12.190;2023-10-13T19:01:44;14.13;;;5.47;;
13319;SDS011;59599;47.608;12.190;2023-10-13T19:04:13;8.68;;;4.85;;
13319;SDS011;59599;47.608;12.190;2023-10-13T19:06:39;13.00;;;5.80;;
13319;SDS011;59599;47.608;12.190;2023-10-13T19:09:06;10.50;;;5.07;;
13319;SDS011;59599;47.608;12.190;2023-10-13T19:11:36;13.07;;;5.18;;
13319;SDS011;59599;47.608;12.190;2023-10-13T19:14:06;12.50;;;8.10;;
13319;SDS011;59599;47.608;12.190;2023-10-13T19:16:41;9.63;;;5.50;;
13319;SDS011;59599;47.608;12.190;2023-10-13T19:19:06;12.93;;;4.82;;
13319;SDS011;59599;47.608;12.190;2023-10-13T19:21:32;6.93;;;4.72;;
13319;SDS011;59599;47.608;12.190;2023-10-13T19:24:01;14.20;;;5.70;;
13319;SDS011;59599;47.608;12.190;2023-10-13T19:26:28;8.98;;;5.45;;
13319;SDS011;59599;47.608;12.190;2023-10-13T19:28:56;11.20;;;5.60;;
13319;SDS011;59599;47.608;12.190;2023-10-13T19:31:22;9.82;;;5.60;;